sensor_id;sensor_type;location;lat;lon;timestamp;pressure;altitude;pressure_sealevel;temperature;humidity
14295;BME280;7231;59.370;18.016;2023-04-07T00:00:07;102405.19;;;1.90;87.68
14295;BME280;7231;59.370;18.016;2023-04-07T00:02:35;102458.22;;;2.24;88.26
14295;BME280;7231;59.370;18.016;2023-04-07T00:05:03;102461.44;;;2.22;88.08
14295;BME280;7231;59.370;18.016;2023-04-07T00:07:31;102347.94;;;1.57;88.31
14295;BME280;7231;59.370;18.016;2023-04-07T00:10:14;102452.13;;;2.24;87.96
14295;BME280;7231;59.370;18.016;2023-04-07T00:12:42;102456.41;;;2.23;88.51
14295;BME280;7231;59.370;18.016;2023-04-07T00:15:11;102447.59;;;2.21;88.20
14295;BME280;7231;59.370;18.016;2023-04-07T00:17:39;102449.66;;;2.15;88.07
14295;BME280;7231;59.370;18.016;2023-04-07T00:20:08;102417.91;;;1.98;88.81
14295;BME280;7231;59.370;18.016;2023-04-07T00:22:36;102439.28;;;2.15;88.47
14295;BME280;7231;59.370;18.016;2023-04-07T00:25:05;102439.44;;;2.17;88.44
14295;BME280;7231;59.370;18.016;2023-04-07T00:27:33;102442.16;;;2.18;89.39
14295;BME280;7231;59.370;18.016;2023-04-07T00:30:01;102439.56;;;2.18;88.80
14295;BME280;7231;59.370;18.016;2023-04-07T00:32:31;102440.59;;;2.20;89.08
14295;BME280;7231;59.370;18.016;2023-04-07T00:35:01;102446.41;;;2.18;88.97
14295;BME280;7231;59.370;18.016;2023-04-07T00:37:29;102440.97;;;2.15;89.70
14295;BME280;7231;59.370;18.016;2023-04-07T00:39:57;102432.53;;;2.07;88.92
14295;BME280;7231;59.370;18.016;2023-04-07T00:42:25;102456.13;;;2.20;89.02
14295;BME280;7231;59.370;18.016;2023-04-07T00:44:53;102457.03;;;2.21;89.68
14295;BME280;7231;59.370;18.016;2023-04-07T00:47:21;102449.41;;;2.22;89.70
14295;BME280;7231;59.370;18.016;2023-04-07T00:49:51;102402.25;;;1.96;89.46
14295;BME280;7231;59.370;18.016;2023-04-07T00:52:19;102422.34;;;2.09;89.78
14295;BME280;7231;59.370;18.016;2023-04-07T00:54:53;102445.38;;;2.16;90.02
14295;BME280;7231;59.370;18.016;2023-04-07T00:57:21;102451.88;;;2.21;89.36
14295;BME280;7231;59.370;18.016;2023-04-07T00:59:49;102449.28;;;2.21;89.58
14295;BME280;7231;59.370;18.016;2023-04-07T01:02:23;102440.34;;;2.17;90.39
14295;BME280;7231;59.370;18.016;2023-04-07T01:05:00;102364.66;;;1.71;89.63
14295;BME280;7231;59.370;18.016;2023-04-07T01:07:34;102436.56;;;2.14;89.75
14295;BME280;7231;59.370;18.016;2023-04-07T01:10:05;102418.56;;;2.05;90.35
14295;BME280;7231;59.370;18.016;2023-04-07T01:12:37;102360.13;;;1.68;89.70
14295;BME280;7231;59.370;18.016;2023-04-07T01:15:10;102421.94;;;2.04;90.01
14295;BME280;7231;59.370;18.016;2023-04-07T01:17:44;102438.13;;;2.12;90.70
14295;BME280;7231;59.370;18.016;2023-04-07T01:20:18;102433.84;;;2.12;90.07
14295;BME280;7231;59.370;18.016;2023-04-07T01:22:53;102426.09;;;2.12;90.10
14295;BME280;7231;59.370;18.016;2023-04-07T01:25:26;102430.50;;;2.13;90.33
14295;BME280;7231;59.370;18.016;2023-04-07T01:28:13;102381.53;;;1.86;90.74
14295;BME280;7231;59.370;18.016;2023-04-07T01:30:44;102421.19;;;2.15;90.25
14295;BME280;7231;59.370;18.016;2023-04-07T01:33:13;102406.13;;;2.01;90.46
14295;BME280;7231;59.370;18.016;2023-04-07T01:35:41;102425.44;;;2.15;90.63
14295;BME280;7231;59.370;18.016;2023-04-07T01:38:10;102421.06;;;2.14;90.87
14295;BME280;7231;59.370;18.016;2023-04-07T01:40:40;102414.19;;;2.14;90.96
14295;BME280;7231;59.370;18.016;2023-04-07T01:43:08;102240.66;;;1.13;90.73
14295;BME280;7231;59.370;18.016;2023-04-07T01:45:37;102422.72;;;2.13;90.70
14295;BME280;7231;59.370;18.016;2023-04-07T01:48:08;102412.38;;;2.13;91.26
14295;BME280;7231;59.370;18.016;2023-04-07T01:50:37;102421.56;;;2.10;91.38
14295;BME280;7231;59.370;18.016;2023-04-07T01:53:06;102424.91;;;2.09;90.94
14295;BME280;7231;59.370;18.016;2023-04-07T01:55:34;102375.44;;;1.85;91.08
14295;BME280;7231;59.370;18.016;2023-04-07T01:58:05;102402.25;;;1.96;91.11
14295;BME280;7231;59.370;18.016;2023-04-07T02:00:33;102419.63;;;2.07;91.53
14295;BME280;7231;59.370;18.016;2023-04-07T02:03:05;102404.06;;;1.97;91.24
14295;BME280;7231;59.370;18.016;2023-04-07T02:05:37;102414.69;;;2.10;91.53
14295;BME280;7231;59.370;18.016;2023-04-07T02:08:07;102334.00;;;1.65;91.74
14295;BME280;7231;59.370;18.016;2023-04-07T02:10:37;102430.22;;;2.10;91.99
14295;BME280;7231;59.370;18.016;2023-04-07T02:13:07;102431.00;;;2.09;92.09
14295;BME280;7231;59.370;18.016;2023-04-07T02:15:38;102435.41;;;2.10;91.67
14295;BME280;7231;59.370;18.016;2023-04-07T02:18:07;102429.44;;;2.11;92.27
14295;BME280;7231;59.370;18.016;2023-04-07T02:20:41;102252.53;;;1.11;91.93
14295;BME280;7231;59.370;18.016;2023-04-07T02:23:11;102434.13;;;2.15;91.76
14295;BME280;7231;59.370;18.016;2023-04-07T02:25:39;102259.28;;;1.19;91.91
14295;BME280;7231;59.370;18.016;2023-04-07T02:28:07;102434.91;;;2.14;91.87
14295;BME280;7231;59.370;18.016;2023-04-07T02:30:35;102430.50;;;2.13;92.09
14295;BME280;7231;59.370;18.016;2023-04-07T02:33:03;102436.72;;;2.15;92.50
14295;BME280;7231;59.370;18.016;2023-04-07T02:35:31;102426.88;;;2.11;92.73
14295;BME280;7231;59.370;18.016;2023-04-07T02:38:00;102432.84;;;2.20;92.63
14295;BME280;7231;59.370;18.016;2023-04-07T02:40:28;102438.00;;;2.20;92.16
14295;BME280;7231;59.370;18.016;2023-04-07T02:42:57;102411.84;;;2.07;92.55
14295;BME280;7231;59.370;18.016;2023-04-07T02:45:25;102446.69;;;2.21;92.17
14295;BME280;7231;59.370;18.016;2023-04-07T02:47:53;102437.75;;;2.17;92.71
14295;BME280;7231;59.370;18.016;2023-04-07T02:50:21;102414.16;;;2.04;92.29
14295;BME280;7231;59.370;18.016;2023-04-07T02:52:49;102446.41;;;2.18;93.12
14295;BME280;7231;59.370;18.016;2023-04-07T02:55:18;102436.97;;;2.18;92.43
14295;BME280;7231;59.370;18.016;2023-04-07T02:57:46;102310.81;;;1.46;92.72
14295;BME280;7231;59.370;18.016;2023-04-07T03:00:15;102421.69;;;2.11;92.78
14295;BME280;7231;59.370;18.016;2023-04-07T03:02:43;102373.75;;;1.86;93.23
14295;BME280;7231;59.370;18.016;2023-04-07T03:05:11;102431.66;;;2.17;92.80
14295;BME280;7231;59.370;18.016;2023-04-07T03:07:39;102430.50;;;2.13;93.26
14295;BME280;7231;59.370;18.016;2023-04-07T03:10:08;102434.00;;;2.14;93.02
14295;BME280;7231;59.370;18.016;2023-04-07T03:12:37;102429.72;;;2.14;93.15
14295;BME280;7231;59.370;18.016;2023-04-07T03:15:06;102433.09;;;2.13;93.29
14295;BME280;7231;59.370;18.016;2023-04-07T03:17:34;102431.41;;;2.14;93.30
14295;BME280;7231;59.370;18.016;2023-04-07T03:20:02;102433.09;;;2.13;93.42
14295;BME280;7231;59.370;18.016;2023-04-07T03:22:30;102437.34;;;2.13;93.09
14295;BME280;7231;59.370;18.016;2023-04-07T03:24:58;102410.13;;;1.98;93.10
14295;BME280;7231;59.370;18.016;2023-04-07T03:27:27;102441.47;;;2.11;93.28
14295;BME280;7231;59.370;18.016;2023-04-07T03:29:56;102444.84;;;2.10;93.07
14295;BME280;7231;59.370;18.016;2023-04-07T03:32:24;102446.53;;;2.09;93.56
14295;BME280;7231;59.370;18.016;2023-04-07T03:34:52;102449.88;;;2.08;93.46
14295;BME280;7231;59.370;18.016;2023-04-07T03:37:20;102470.59;;;2.08;93.46
14295;BME280;7231;59.370;18.016;2023-04-07T03:39:48;102460.22;;;2.08;93.72
14295;BME280;7231;59.370;18.016;2023-04-07T03:42:17;102367.72;;;1.56;93.41
14295;BME280;7231;59.370;18.016;2023-04-07T03:44:45;102439.28;;;2.05;93.60
14295;BME280;7231;59.370;18.016;2023-04-07T03:47:15;102444.44;;;2.05;94.10
14295;BME280;7231;59.370;18.016;2023-04-07T03:49:42;102442.63;;;2.04;93.56
14295;BME280;7231;59.370;18.016;2023-04-07T03:52:10;102440.03;;;2.04;94.19
14295;BME280;7231;59.370;18.016;2023-04-07T03:54:41;102450.38;;;2.04;94.47
14295;BME280;7231;59.370;18.016;2023-04-07T03:57:09;102444.44;;;2.05;94.31
14295;BME280;7231;59.370;18.016;2023-04-07T03:59:37;102457.38;;;2.05;93.93
14295;BME280;7231;59.370;18.016;2023-04-07T04:02:05;102453.88;;;2.05;94.19
14295;BME280;7231;59.370;18.016;2023-04-07T04:04:34;102449.75;;;2.07;94.61
14295;BME280;7231;59.370;18.016;2023-04-07T04:07:02;102430.56;;;1.94;94.81
14295;BME280;7231;59.370;18.016;2023-04-07T04:09:30;102454.03;;;2.06;94.06
14295;BME280;7231;59.370;18.016;2023-04-07T04:11:58;102461.78;;;2.06;94.53
14295;BME280;7231;59.370;18.016;2023-04-07T04:14:28;102455.84;;;2.07;94.74
14295;BME280;7231;59.370;18.016;2023-04-07T04:16:56;102455.84;;;2.07;94.09
14295;BME280;7231;59.370;18.016;2023-04-07T04:19:24;102444.69;;;1.98;94.46
14295;BME280;7231;59.370;18.016;2023-04-07T04:21:54;102467.34;;;2.11;94.33
14295;BME280;7231;59.370;18.016;2023-04-07T04:24:22;102469.03;;;2.10;94.26
14295;BME280;7231;59.370;18.016;2023-04-07T04:26:49;102471.63;;;2.10;94.50
14295;BME280;7231;59.370;18.016;2023-04-07T04:29:17;102380.91;;;1.59;94.55
14295;BME280;7231;59.370;18.016;2023-04-07T04:31:46;102473.44;;;2.11;95.11
14295;BME280;7231;59.370;18.016;2023-04-07T04:34:14;102479.66;;;2.13;95.28
14295;BME280;7231;59.370;18.016;2023-04-07T04:36:41;102482.25;;;2.13;95.38
14295;BME280;7231;59.370;18.016;2023-04-07T04:39:11;102480.69;;;2.15;95.52
14295;BME280;7231;59.370;18.016;2023-04-07T04:41:39;102439.19;;;1.85;94.92
14295;BME280;7231;59.370;18.016;2023-04-07T04:44:07;102472.78;;;2.04;95.23
14295;BME280;7231;59.370;18.016;2023-04-07T04:46:35;102502.59;;;2.19;95.01
14295;BME280;7231;59.370;18.016;2023-04-07T04:49:03;102497.41;;;2.19;95.51
14295;BME280;7231;59.370;18.016;2023-04-07T04:51:31;102499.72;;;2.16;95.66
14295;BME280;7231;59.370;18.016;2023-04-07T04:53:59;102504.91;;;2.16;95.61
14295;BME280;7231;59.370;18.016;2023-04-07T04:56:30;102501.53;;;2.17;95.79
14295;BME280;7231;59.370;18.016;2023-04-07T04:58:58;102483.13;;;2.04;95.72
14295;BME280;7231;59.370;18.016;2023-04-07T05:01:26;102508.53;;;2.18;95.78
14295;BME280;7231;59.370;18.016;2023-04-07T05:03:56;102484.03;;;2.04;95.72
14295;BME280;7231;59.370;18.016;2023-04-07T05:06:25;102492.19;;;2.09;95.50
14295;BME280;7231;59.370;18.016;2023-04-07T05:08:54;102511.25;;;2.19;95.87
14295;BME280;7231;59.370;18.016;2023-04-07T05:11:22;102476.50;;;1.97;95.38
14295;BME280;7231;59.370;18.016;2023-04-07T05:13:51;102513.19;;;2.22;95.50
14295;BME280;7231;59.370;18.016;2023-04-07T05:16:19;102508.03;;;2.22;95.83
14295;BME280;7231;59.370;18.016;2023-04-07T05:18:47;102503.34;;;2.18;95.63
14295;BME280;7231;59.370;18.016;2023-04-07T05:21:15;102517.09;;;2.27;95.83
14295;BME280;7231;59.370;18.016;2023-04-07T05:23:45;102522.41;;;2.28;95.76
14295;BME280;7231;59.370;18.016;2023-04-07T05:26:13;102516.47;;;2.30;96.04
14295;BME280;7231;59.370;18.016;2023-04-07T05:28:41;102517.50;;;2.32;96.22
14295;BME280;7231;59.370;18.016;2023-04-07T05:31:11;102528.91;;;2.34;96.03
14295;BME280;7231;59.370;18.016;2023-04-07T05:33:39;102493.91;;;2.18;96.12
14295;BME280;7231;59.370;18.016;2023-04-07T05:36:07;102533.84;;;2.41;96.34
14295;BME280;7231;59.370;18.016;2023-04-07T05:38:35;102534.88;;;2.43;95.82
14295;BME280;7231;59.370;18.016;2023-04-07T05:41:03;102508.69;;;2.30;96.03
14295;BME280;7231;59.370;18.016;2023-04-07T05:43:31;102539.94;;;2.41;95.82
14295;BME280;7231;59.370;18.016;2023-04-07T05:45:59;102544.19;;;2.41;96.32
14295;BME280;7231;59.370;18.016;2023-04-07T05:48:28;102537.34;;;2.41;96.08
14295;BME280;7231;59.370;18.016;2023-04-07T05:50:56;102539.03;;;2.41;96.21
14295;BME280;7231;59.370;18.016;2023-04-07T05:53:24;102539.03;;;2.41;96.10
14295;BME280;7231;59.370;18.016;2023-04-07T05:55:52;102543.44;;;2.42;96.39
14295;BME280;7231;59.370;18.016;2023-04-07T05:58:20;102484.28;;;2.07;96.22
14295;BME280;7231;59.370;18.016;2023-04-07T06:00:49;102464.59;;;1.99;96.54
14295;BME280;7231;59.370;18.016;2023-04-07T06:03:16;102545.75;;;2.39;95.95
14295;BME280;7231;59.370;18.016;2023-04-07T06:05:46;102551.84;;;2.39;95.90
14295;BME280;7231;59.370;18.016;2023-04-07T06:08:14;102549.25;;;2.39;96.56
14295;BME280;7231;59.370;18.016;2023-04-07T06:10:42;102547.69;;;2.41;96.72
14295;BME280;7231;59.370;18.016;2023-04-07T06:13:11;102549.66;;;2.44;96.37
14295;BME280;7231;59.370;18.016;2023-04-07T06:15:39;102549.00;;;2.46;96.01
14295;BME280;7231;59.370;18.016;2023-04-07T06:18:07;102547.31;;;2.47;95.95
14295;BME280;7231;59.370;18.016;2023-04-07T06:20:35;102483.38;;;2.07;95.79
14295;BME280;7231;59.370;18.016;2023-04-07T06:23:04;102550.81;;;2.47;95.83
14295;BME280;7231;59.370;18.016;2023-04-07T06:25:32;102555.22;;;2.48;96.46
14295;BME280;7231;59.370;18.016;2023-04-07T06:28:00;102550.19;;;2.50;95.88
14295;BME280;7231;59.370;18.016;2023-04-07T06:30:28;102518.16;;;2.29;96.08
14295;BME280;7231;59.370;18.016;2023-04-07T06:32:56;102526.44;;;2.35;95.70
14295;BME280;7231;59.370;18.016;2023-04-07T06:35:24;102534.22;;;2.35;95.88
14295;BME280;7231;59.370;18.016;2023-04-07T06:37:53;102556.28;;;2.50;95.98
14295;BME280;7231;59.370;18.016;2023-04-07T06:40:22;102511.03;;;2.26;95.79
14295;BME280;7231;59.370;18.016;2023-04-07T06:42:50;102490.53;;;2.19;95.85
14295;BME280;7231;59.370;18.016;2023-04-07T06:45:20;102559.75;;;2.61;96.04
14295;BME280;7231;59.370;18.016;2023-04-07T06:47:48;102564.03;;;2.60;95.63
14295;BME280;7231;59.370;18.016;2023-04-07T06:50:16;102565.22;;;2.64;95.94
14295;BME280;7231;59.370;18.016;2023-04-07T06:52:46;102569.88;;;2.68;95.90
14295;BME280;7231;59.370;18.016;2023-04-07T06:55:14;102574.28;;;2.69;95.65
14295;BME280;7231;59.370;18.016;2023-04-07T06:57:43;102569.09;;;2.69;95.98
14295;BME280;7231;59.370;18.016;2023-04-07T07:00:12;102563.94;;;2.69;95.72
14295;BME280;7231;59.370;18.016;2023-04-07T07:02:40;102564.97;;;2.71;95.88
14295;BME280;7231;59.370;18.016;2023-04-07T07:05:08;102547.06;;;2.64;95.54
14295;BME280;7231;59.370;18.016;2023-04-07T07:07:37;102568.09;;;2.77;95.63
14295;BME280;7231;59.370;18.016;2023-04-07T07:10:08;102565.38;;;2.76;95.66
14295;BME280;7231;59.370;18.016;2023-04-07T07:12:36;102563.94;;;2.79;95.30
14295;BME280;7231;59.370;18.016;2023-04-07T07:15:07;102564.47;;;2.85;95.73
14295;BME280;7231;59.370;18.016;2023-04-07T07:17:35;102499.03;;;2.47;95.65
14295;BME280;7231;59.370;18.016;2023-04-07T07:20:04;102569.28;;;2.91;95.29
14295;BME280;7231;59.370;18.016;2023-04-07T07:22:32;102571.09;;;2.92;95.37
14295;BME280;7231;59.370;18.016;2023-04-07T07:25:00;102551.25;;;2.82;95.45
14295;BME280;7231;59.370;18.016;2023-04-07T07:27:28;102575.25;;;3.00;95.16
14295;BME280;7231;59.370;18.016;2023-04-07T07:29:56;102576.16;;;3.01;94.99
14295;BME280;7231;59.370;18.016;2023-04-07T07:32:26;102551.53;;;2.85;94.56
14295;BME280;7231;59.370;18.016;2023-04-07T07:34:54;102581.22;;;2.99;94.78
14295;BME280;7231;59.370;18.016;2023-04-07T07:37:21;102574.47;;;3.01;94.78
14295;BME280;7231;59.370;18.016;2023-04-07T07:39:49;102591.97;;;3.04;94.69
14295;BME280;7231;59.370;18.016;2023-04-07T07:42:18;102581.09;;;3.08;94.31
14295;BME280;7231;59.370;18.016;2023-04-07T07:44:46;102590.19;;;3.13;94.08
14295;BME280;7231;59.370;18.016;2023-04-07T07:47:14;102589.66;;;3.17;94.30
14295;BME280;7231;59.370;18.016;2023-04-07T07:49:43;102591.72;;;3.21;94.02
14295;BME280;7231;59.370;18.016;2023-04-07T07:52:11;102559.47;;;3.07;94.13
14295;BME280;7231;59.370;18.016;2023-04-07T07:54:39;102594.06;;;3.28;93.86
14295;BME280;7231;59.370;18.016;2023-04-07T07:57:07;102510.19;;;2.77;93.90
14295;BME280;7231;59.370;18.016;2023-04-07T07:59:35;102593.28;;;3.29;93.78
14295;BME280;7231;59.370;18.016;2023-04-07T08:02:03;102597.19;;;3.34;93.86
14295;BME280;7231;59.370;18.016;2023-04-07T08:04:31;102600.03;;;3.37;93.62
14295;BME280;7231;59.370;18.016;2023-04-07T08:07:01;102598.88;;;3.44;93.45
14295;BME280;7231;59.370;18.016;2023-04-07T08:09:29;102500.22;;;2.91;93.48
14295;BME280;7231;59.370;18.016;2023-04-07T08:11:57;102587.34;;;3.40;93.28
14295;BME280;7231;59.370;18.016;2023-04-07T08:14:25;102608.72;;;3.58;93.06
14295;BME280;7231;59.370;18.016;2023-04-07T08:16:54;102557.91;;;3.30;93.14
14295;BME280;7231;59.370;18.016;2023-04-07T08:19:22;102610.66;;;3.61;92.77
14295;BME280;7231;59.370;18.016;2023-04-07T08:21:50;102586.03;;;3.45;92.50
14295;BME280;7231;59.370;18.016;2023-04-07T08:24:19;102587.06;;;3.37;92.53
14295;BME280;7231;59.370;18.016;2023-04-07T08:26:47;102615.59;;;3.57;92.48
14295;BME280;7231;59.370;18.016;2023-04-07T08:29:16;102625.47;;;3.62;92.61
14295;BME280;7231;59.370;18.016;2023-04-07T08:31:44;102630.00;;;3.64;92.24
14295;BME280;7231;59.370;18.016;2023-04-07T08:34:12;102624.03;;;3.65;92.42
14295;BME280;7231;59.370;18.016;2023-04-07T08:36:41;102578.13;;;3.44;92.28
14295;BME280;7231;59.370;18.016;2023-04-07T08:39:13;102603.28;;;3.55;92.03
14295;BME280;7231;59.370;18.016;2023-04-07T08:41:43;102625.31;;;3.70;92.20
14295;BME280;7231;59.370;18.016;2023-04-07T08:44:14;102624.53;;;3.71;91.96
14295;BME280;7231;59.370;18.016;2023-04-07T08:46:43;102622.84;;;3.72;91.88
14295;BME280;7231;59.370;18.016;2023-04-07T08:49:15;102618.97;;;3.77;91.85
14295;BME280;7231;59.370;18.016;2023-04-07T08:51:45;102618.06;;;3.76;91.83
14295;BME280;7231;59.370;18.016;2023-04-07T08:54:15;102621.44;;;3.75;91.86
14295;BME280;7231;59.370;18.016;2023-04-07T08:56:46;102608.72;;;3.68;91.75
14295;BME280;7231;59.370;18.016;2023-04-07T08:59:14;102624.94;;;3.76;91.49
14295;BME280;7231;59.370;18.016;2023-04-07T09:01:45;102612.09;;;3.77;91.75
14295;BME280;7231;59.370;18.016;2023-04-07T09:04:13;102619.47;;;3.83;91.56
14295;BME280;7231;59.370;18.016;2023-04-07T09:06:42;102625.81;;;3.86;91.64
14295;BME280;7231;59.370;18.016;2023-04-07T09:09:11;102620.63;;;3.86;91.35
14295;BME280;7231;59.370;18.016;2023-04-07T09:11:41;102624.78;;;3.84;91.63
14295;BME280;7231;59.370;18.016;2023-04-07T09:14:10;102629.31;;;3.87;91.37
14295;BME280;7231;59.370;18.016;2023-04-07T09:16:38;102623.22;;;3.86;91.06
14295;BME280;7231;59.370;18.016;2023-04-07T09:19:07;102629.31;;;3.87;91.18
14295;BME280;7231;59.370;18.016;2023-04-07T09:21:48;102625.94;;;3.88;91.35
14295;BME280;7231;59.370;18.016;2023-04-07T09:24:20;102627.00;;;3.90;91.06
14295;BME280;7231;59.370;18.016;2023-04-07T09:26:49;102582.78;;;3.68;91.34
14295;BME280;7231;59.370;18.016;2023-04-07T09:29:21;102632.16;;;4.00;91.05
14295;BME280;7231;59.370;18.016;2023-04-07T09:31:50;102633.44;;;4.05;90.97
14295;BME280;7231;59.370;18.016;2023-04-07T09:34:24;102635.53;;;4.09;90.84
14295;BME280;7231;59.370;18.016;2023-04-07T09:36:53;102616.59;;;4.00;90.95
14295;BME280;7231;59.370;18.016;2023-04-07T09:39:22;102583.16;;;3.83;90.84
14295;BME280;7231;59.370;18.016;2023-04-07T09:41:51;102649.41;;;4.10;91.18
14295;BME280;7231;59.370;18.016;2023-04-07T09:44:21;102638.78;;;4.07;90.91
14295;BME280;7231;59.370;18.016;2023-04-07T09:46:50;102651.09;;;4.09;90.79
14295;BME280;7231;59.370;18.016;2023-04-07T09:49:19;102647.84;;;4.12;90.74
14295;BME280;7231;59.370;18.016;2023-04-07T09:51:54;102646.41;;;4.15;90.82
14295;BME280;7231;59.370;18.016;2023-04-07T09:54:32;102648.22;;;4.16;90.61
14295;BME280;7231;59.370;18.016;2023-04-07T09:57:02;102654.19;;;4.15;90.33
14295;BME280;7231;59.370;18.016;2023-04-07T09:59:34;102628.50;;;4.08;90.45
14295;BME280;7231;59.370;18.016;2023-04-07T10:02:03;102654.81;;;4.23;90.29
14295;BME280;7231;59.370;18.016;2023-04-07T10:04:32;102662.75;;;4.24;90.22
14295;BME280;7231;59.370;18.016;2023-04-07T10:07:00;102635.91;;;4.14;89.58
14295;BME280;7231;59.370;18.016;2023-04-07T10:09:29;102656.53;;;4.22;90.03
14295;BME280;7231;59.370;18.016;2023-04-07T10:11:58;102561.38;;;3.71;90.21
14295;BME280;7231;59.370;18.016;2023-04-07T10:14:27;102664.19;;;4.21;89.97
14295;BME280;7231;59.370;18.016;2023-04-07T10:16:58;102665.75;;;4.19;89.59
14295;BME280;7231;59.370;18.016;2023-04-07T10:19:31;102660.94;;;4.23;89.78
14295;BME280;7231;59.370;18.016;2023-04-07T10:22:01;102655.22;;;4.28;89.82
14295;BME280;7231;59.370;18.016;2023-04-07T10:24:45;102650.25;;;4.31;89.48
14295;BME280;7231;59.370;18.016;2023-04-07T10:27:17;102662.59;;;4.33;89.29
14295;BME280;7231;59.370;18.016;2023-04-07T10:29:48;102660.78;;;4.32;88.89
14295;BME280;7231;59.370;18.016;2023-04-07T10:32:19;102655.84;;;4.35;89.31
14295;BME280;7231;59.370;18.016;2023-04-07T10:34:58;102652.84;;;4.41;89.43
14295;BME280;7231;59.370;18.016;2023-04-07T10:37:27;102654.66;;;4.42;88.89
14295;BME280;7231;59.370;18.016;2023-04-07T10:40:26;102656.34;;;4.41;89.57
14295;BME280;7231;59.370;18.016;2023-04-07T10:42:54;102634.44;;;4.28;88.99
14295;BME280;7231;59.370;18.016;2023-04-07T10:45:51;102648.94;;;4.36;89.31
14295;BME280;7231;59.370;18.016;2023-04-07T10:48:24;102664.53;;;4.36;88.79
14295;BME280;7231;59.370;18.016;2023-04-07T10:51:15;102664.78;;;4.39;89.41
14295;BME280;7231;59.370;18.016;2023-04-07T10:54:18;102670.47;;;4.45;89.06
14295;BME280;7231;59.370;18.016;2023-04-07T10:57:09;102665.53;;;4.48;88.55
14295;BME280;7231;59.370;18.016;2023-04-07T10:59:40;102670.06;;;4.50;88.56
14295;BME280;7231;59.370;18.016;2023-04-07T11:02:31;102636.75;;;4.35;88.73
14295;BME280;7231;59.370;18.016;2023-04-07T11:05:02;102661.53;;;4.41;88.24
14295;BME280;7231;59.370;18.016;2023-04-07T11:07:47;102665.56;;;4.38;88.29
14295;BME280;7231;59.370;18.016;2023-04-07T11:10:16;102549.81;;;3.77;88.33
14295;BME280;7231;59.370;18.016;2023-04-07T11:13:00;102505.38;;;3.52;88.14
14295;BME280;7231;59.370;18.016;2023-04-07T11:15:29;102678.94;;;4.42;88.11
14295;BME280;7231;59.370;18.016;2023-04-07T11:18:14;102676.22;;;4.41;88.27
14295;BME280;7231;59.370;18.016;2023-04-07T11:20:47;102676.47;;;4.44;88.31
14295;BME280;7231;59.370;18.016;2023-04-07T11:23:15;102670.72;;;4.48;88.02
14295;BME280;7231;59.370;18.016;2023-04-07T11:25:46;102661.53;;;4.41;87.87
14295;BME280;7231;59.370;18.016;2023-04-07T11:28:14;102672.91;;;4.53;87.58
14295;BME280;7231;59.370;18.016;2023-04-07T11:30:48;102676.44;;;4.54;87.94
14295;BME280;7231;59.370;18.016;2023-04-07T11:33:18;102657.38;;;4.43;88.06
14295;BME280;7231;59.370;18.016;2023-04-07T11:35:51;102671.34;;;4.55;87.70
14295;BME280;7231;59.370;18.016;2023-04-07T11:38:24;102675.00;;;4.57;87.49
14295;BME280;7231;59.370;18.016;2023-04-07T11:40:53;102631.56;;;4.35;88.01
14295;BME280;7231;59.370;18.016;2023-04-07T11:43:22;102670.41;;;4.65;87.55
14295;BME280;7231;59.370;18.016;2023-04-07T11:46:05;102664.81;;;4.71;88.04
14295;BME280;7231;59.370;18.016;2023-04-07T11:48:34;102671.16;;;4.74;87.81
14295;BME280;7231;59.370;18.016;2023-04-07T11:51:06;102671.94;;;4.73;87.36
14295;BME280;7231;59.370;18.016;2023-04-07T11:53:44;102628.13;;;4.46;86.87
14295;BME280;7231;59.370;18.016;2023-04-07T11:56:16;102676.59;;;4.77;87.48
14295;BME280;7231;59.370;18.016;2023-04-07T11:58:47;102587.94;;;4.31;87.26
14295;BME280;7231;59.370;18.016;2023-04-07T12:01:16;102633.72;;;4.50;86.98
14295;BME280;7231;59.370;18.016;2023-04-07T12:03:57;102592.47;;;4.33;86.93
14295;BME280;7231;59.370;18.016;2023-04-07T12:06:29;102672.91;;;4.85;86.63
14295;BME280;7231;59.370;18.016;2023-04-07T12:09:01;102521.97;;;4.07;86.58
14295;BME280;7231;59.370;18.016;2023-04-07T12:11:30;102688.84;;;5.00;86.89
14295;BME280;7231;59.370;18.016;2023-04-07T12:13:58;102584.22;;;4.49;86.63
14295;BME280;7231;59.370;18.016;2023-04-07T12:16:27;102628.25;;;4.79;86.40
14295;BME280;7231;59.370;18.016;2023-04-07T12:18:54;102657.81;;;4.92;86.19
14295;BME280;7231;59.370;18.016;2023-04-07T12:21:23;102681.41;;;5.05;86.25
14295;BME280;7231;59.370;18.016;2023-04-07T12:23:53;102660.78;;;4.96;86.08
14295;BME280;7231;59.370;18.016;2023-04-07T12:26:21;102681.66;;;5.08;86.27
14295;BME280;7231;59.370;18.016;2023-04-07T12:28:51;102601.47;;;4.59;85.72
14295;BME280;7231;59.370;18.016;2023-04-07T12:31:19;102651.41;;;4.98;86.21
14295;BME280;7231;59.370;18.016;2023-04-07T12:33:47;102671.19;;;5.18;86.59
14295;BME280;7231;59.370;18.016;2023-04-07T12:36:15;102671.75;;;5.26;86.42
14295;BME280;7231;59.370;18.016;2023-04-07T12:38:43;102670.41;;;5.31;86.06
14295;BME280;7231;59.370;18.016;2023-04-07T12:41:14;102634.53;;;5.15;85.91
14295;BME280;7231;59.370;18.016;2023-04-07T12:43:42;102673.31;;;5.45;85.73
14295;BME280;7231;59.370;18.016;2023-04-07T12:46:12;102665.06;;;5.51;85.74
14295;BME280;7231;59.370;18.016;2023-04-07T12:48:40;102668.03;;;5.55;85.07
14295;BME280;7231;59.370;18.016;2023-04-07T12:51:08;102669.72;;;5.55;84.76
14295;BME280;7231;59.370;18.016;2023-04-07T12:53:36;102672.44;;;5.57;85.42
14295;BME280;7231;59.370;18.016;2023-04-07T12:56:04;102663.84;;;5.58;84.68
14295;BME280;7231;59.370;18.016;2023-04-07T12:58:34;102663.19;;;5.60;85.02
14295;BME280;7231;59.370;18.016;2023-04-07T13:01:02;102658.88;;;5.61;84.22
14295;BME280;7231;59.370;18.016;2023-04-07T13:03:33;102642.56;;;5.51;84.59
14295;BME280;7231;59.370;18.016;2023-04-07T13:06:02;102663.53;;;5.65;84.25
14295;BME280;7231;59.370;18.016;2023-04-07T13:08:32;102622.06;;;5.44;83.92
14295;BME280;7231;59.370;18.016;2023-04-07T13:11:00;102656.53;;;5.64;83.73
14295;BME280;7231;59.370;18.016;2023-04-07T13:13:30;102618.31;;;5.41;83.28